Time;durP1;ratioP1;P1;durP2;ratioP2;P2;SDS_P1;SDS_P2;PMS_P1;PMS_P2;Temp;Humidity;BMP_temperature;BMP_pressure;BME280_temperature;BME280_humidity;BME280_pressure;Samples;Min_cycle;Max_cycle;Signal;HPM_P1;HPM_P2
2024/03/02 00:01:15;;;;;;;19.83;14.23;;;;;;;;;;4415093;32;319390;-67
2024/03/02 00:03:43;;;;;;;18.27;12.20;;;;;;;;;;4401693;32;418670;-69
2024/03/02 00:06:11;;;;;;;16.80;10.63;;;;;;;;;;4413810;32;319395;-67
2024/03/02 00:08:40;;;;;;;18.10;11.53;;;;;;;;;;4401656;32;319321;-67
2024/03/02 00:11:07;;;;;;;21.23;13.50;;;;;;;;;;4414915;32;319522;-67
2024/03/02 00:13:34;;;;;;;22.07;14.10;;;;;;;;;;4404625;32;319604;-67
2024/03/02 00:16:04;;;;;;;26.87;15.93;;;;;;;;;;4414700;32;319384;-67
2024/03/02 00:18:36;;;;;;;21.97;15.77;;;;;;;;;;4400911;32;319277;-67
2024/03/02 00:21:04;;;;;;;18.23;12.50;;;;;;;;;;4415010;32;319236;-67
2024/03/02 00:23:31;;;;;;;15.33;11.70;;;;;;;;;;4404689;32;319234;-67
2024/03/02 00:26:00;;;;;;;18.47;12.03;;;;;;;;;;4414547;32;319542;-67
2024/03/02 00:28:30;;;;;;;12.43;10.43;;;;;;;;;;4403343;32;319398;-71
2024/03/02 00:30:59;;;;;;;21.60;11.00;;;;;;;;;;4414564;32;319343;-67
2024/03/02 00:33:29;;;;;;;17.37;11.43;;;;;;;;;;4402629;32;319362;-67
2024/03/02 00:35:57;;;;;;;15.00;10.57;;;;;;;;;;4413638;32;319249;-67
2024/03/02 00:38:23;;;;;;;15.67;9.47;;;;;;;;;;4402207;32;319711;-68
2024/03/02 00:40:50;;;;;;;18.43;11.20;;;;;;;;;;4410435;32;318282;-68
2024/03/02 00:43:43;;;;;;;14.90;10.40;;;;;;;;;;4403033;32;319302;-68
2024/03/02 00:46:12;;;;;;;15.60;10.90;;;;;;;;;;4414482;32;319501;-67
2024/03/02 00:48:39;;;;;;;15.37;10.67;;;;;;;;;;4400920;32;322872;-67
2024/03/02 00:51:06;;;;;;;15.40;9.87;;;;;;;;;;4414349;32;319487;-67
2024/03/02 00:53:33;;;;;;;25.03;14.47;;;;;;;;;;4403184;32;318296;-67
2024/03/02 00:56:01;;;;;;;24.13;14.07;;;;;;;;;;4412943;32;319341;-68
2024/03/02 00:58:29;;;;;;;14.60;9.43;;;;;;;;;;4402842;32;319254;-70
2024/03/02 01:00:56;;;;;;;7.83;7.03;;;;;;;;;;4413491;32;318364;-68
2024/03/02 01:03:23;;;;;;;9.30;6.00;;;;;;;;;;4402658;32;325338;-67
2024/03/02 01:05:50;;;;;;;8.57;5.73;;;;;;;;;;4414331;32;317434;-67
2024/03/02 01:08:17;;;;;;;7.70;5.33;;;;;;;;;;4402975;32;317329;-68
2024/03/02 01:10:43;;;;;;;7.83;6.13;;;;;;;;;;4411257;32;327689;-67
2024/03/02 01:13:10;;;;;;;10.00;5.27;;;;;;;;;;4414073;32;317256;-67
2024/03/02 01:15:38;;;;;;;5.67;5.07;;;;;;;;;;4404230;32;318199;-67
2024/03/02 01:18:05;;;;;;;11.17;5.77;;;;;;;;;;4412997;32;316837;-67
2024/03/02 01:20:32;;;;;;;6.80;4.87;;;;;;;;;;4401590;32;318212;-67
2024/03/02 01:22:59;;;;;;;5.47;4.37;;;;;;;;;;4413954;32;317249;-68
2024/03/02 01:25:26;;;;;;;7.17;4.40;;;;;;;;;;4404014;32;317118;-69
2024/03/02 01:27:52;;;;;;;9.60;5.60;;;;;;;;;;4413932;32;317803;-67
2024/03/02 01:30:19;;;;;;;11.10;6.80;;;;;;;;;;4402601;32;317221;-67
2024/03/02 01:32:47;;;;;;;7.87;4.60;;;;;;;;;;4411017;32;318255;-70
2024/03/02 01:35:14;;;;;;;6.37;4.90;;;;;;;;;;4413807;32;317367;-67
2024/03/02 01:37:41;;;;;;;8.77;5.30;;;;;;;;;;4399849;32;418161;-68
2024/03/02 01:40:09;;;;;;;8.83;5.80;;;;;;;;;;4412233;32;317443;-69
2024/03/02 01:42:37;;;;;;;8.80;5.27;;;;;;;;;;4400505;32;317394;-66
2024/03/02 01:45:05;;;;;;;6.30;4.37;;;;;;;;;;4413750;32;317318;-67
2024/03/02 01:47:32;;;;;;;8.43;5.30;;;;;;;;;;4402499;32;317509;-69
2024/03/02 01:50:01;;;;;;;5.97;4.47;;;;;;;;;;4412795;32;323752;-69
2024/03/02 01:52:29;;;;;;;5.80;5.20;;;;;;;;;;4402376;32;317485;-67
2024/03/02 01:54:56;;;;;;;10.43;5.97;;;;;;;;;;4413580;32;317684;-69
2024/03/02 01:57:22;;;;;;;14.67;7.70;;;;;;;;;;4400539;32;318691;-67
2024/03/02 01:59:50;;;;;;;16.70;9.70;;;;;;;;;;4411946;32;317731;-67
2024/03/02 02:02:17;;;;;;;15.70;10.53;;;;;;;;;;4399834;32;335624;-68
2024/03/02 02:04:44;;;;;;;13.80;11.50;;;;;;;;;;4410903;32;319604;-69
2024/03/02 02:07:14;;;;;;;14.13;10.87;;;;;;;;;;4413130;32;318684;-67
2024/03/02 02:09:40;;;;;;;17.63;13.87;;;;;;;;;;4402761;32;319338;-67
2024/03/02 02:12:08;;;;;;;17.03;12.87;;;;;;;;;;4412316;32;319600;-67
2024/03/02 02:14:34;;;;;;;15.00;12.00;;;;;;;;;;4400669;32;319567;-67
2024/03/02 02:17:01;;;;;;;16.73;12.80;;;;;;;;;;4411832;32;319494;-67
2024/03/02 02:19:28;;;;;;;16.50;12.80;;;;;;;;;;4401916;32;319509;-68
2024/03/02 02:21:56;;;;;;;17.97;12.70;;;;;;;;;;4413044;32;319473;-67
2024/03/02 02:24:23;;;;;;;16.97;12.40;;;;;;;;;;4402793;32;319578;-67
2024/03/02 02:26:49;;;;;;;18.70;12.40;;;;;;;;;;4410685;32;319766;-67
2024/03/02 02:29:17;;;;;;;14.53;10.57;;;;;;;;;;4409951;32;319689;-70
2024/03/02 02:31:44;;;;;;;12.90;9.83;;;;;;;;;;4412603;32;319574;-67
2024/03/02 02:34:10;;;;;;;16.60;12.57;;;;;;;;;;4412718;32;317923;-67
2024/03/02 02:36:39;;;;;;;16.47;12.47;;;;;;;;;;4399774;32;319617;-67
2024/03/02 02:39:10;;;;;;;16.50;12.10;;;;;;;;;;4412599;32;319457;-67
2024/03/02 02:41:40;;;;;;;18.83;11.63;;;;;;;;;;4401467;32;338817;-67
2024/03/02 02:44:06;;;;;;;16.10;11.83;;;;;;;;;;4412680;32;319567;-67
2024/03/02 02:46:33;;;;;;;14.17;10.73;;;;;;;;;;4398364;32;319659;-67
2024/03/02 02:49:00;;;;;;;13.73;10.80;;;;;;;;;;4412600;32;319471;-69
2024/03/02 02:51:27;;;;;;;17.07;11.23;;;;;;;;;;4402775;32;319498;-68
2024/03/02 02:53:53;;;;;;;17.33;11.03;;;;;;;;;;4412401;32;319745;-67
2024/03/02 02:56:22;;;;;;;17.03;12.63;;;;;;;;;;4401459;32;319189;-67
2024/03/02 02:58:48;;;;;;;18.23;12.73;;;;;;;;;;4408899;32;319401;-67
2024/03/02 03:01:16;;;;;;;16.07;12.67;;;;;;;;;;4411180;32;322585;-67
2024/03/02 03:03:43;;;;;;;21.03;14.43;;;;;;;;;;4399888;32;420102;-67
2024/03/02 03:06:10;;;;;;;21.20;14.87;;;;;;;;;;4415380;32;332605;-67
2024/03/02 03:08:37;;;;;;;23.73;14.53;;;;;;;;;;4403428;32;319981;-67
2024/03/02 03:11:04;;;;;;;18.70;13.53;;;;;;;;;;4416115;32;319619;-67
2024/03/02 03:13:33;;;;;;;17.90;11.77;;;;;;;;;;4405162;32;319687;-67
2024/03/02 03:15:59;;;;;;;13.93;10.60;;;;;;;;;;4414691;32;319293;-70
2024/03/02 03:18:26;;;;;;;12.37;10.07;;;;;;;;;;4404506;32;319917;-67
2024/03/02 03:20:53;;;;;;;11.13;9.23;;;;;;;;;;4412661;32;319416;-67
2024/03/02 03:23:20;;;;;;;13.90;8.70;;;;;;;;;;4405184;32;318405;-67
2024/03/02 03:25:47;;;;;;;12.07;8.30;;;;;;;;;;4414311;32;333196;-69
2024/03/02 03:28:14;;;;;;;15.83;10.03;;;;;;;;;;4415408;32;318902;-67
2024/03/02 03:30:42;;;;;;;12.73;8.33;;;;;;;;;;4401822;32;319273;-69
2024/03/02 03:33:08;;;;;;;12.27;9.60;;;;;;;;;;4414173;32;318542;-67
2024/03/02 03:35:35;;;;;;;10.83;7.83;;;;;;;;;;4404706;32;318352;-67
2024/03/02 03:38:02;;;;;;;11.33;7.33;;;;;;;;;;4415039;32;318296;-67
2024/03/02 03:40:29;;;;;;;7.80;6.40;;;;;;;;;;4405214;32;318527;-67
2024/03/02 03:42:56;;;;;;;8.23;5.93;;;;;;;;;;4414548;32;317431;-67
2024/03/02 03:45:25;;;;;;;8.10;5.47;;;;;;;;;;4405342;32;317561;-67
2024/03/02 03:47:54;;;;;;;7.23;5.40;;;;;;;;;;4414623;32;348071;-69
2024/03/02 03:50:20;;;;;;;7.00;5.80;;;;;;;;;;4405539;32;317255;-67
2024/03/02 03:52:47;;;;;;;8.83;6.10;;;;;;;;;;4411672;32;317547;-66
2024/03/02 03:55:14;;;;;;;9.30;7.27;;;;;;;;;;4415343;32;317365;-66
2024/03/02 03:57:41;;;;;;;8.97;7.17;;;;;;;;;;4404129;32;353893;-66
2024/03/02 04:00:11;;;;;;;7.57;5.90;;;;;;;;;;4415116;32;317445;-66
2024/03/02 04:02:38;;;;;;;11.53;7.03;;;;;;;;;;4397507;32;317541;-66
2024/03/02 04:05:08;;;;;;;7.67;6.03;;;;;;;;;;4423661;32;319026;-66
2024/03/02 04:07:39;;;;;;;11.90;6.33;;;;;;;;;;4407688;32;357244;-66
2024/03/02 04:10:09;;;;;;;9.57;6.57;;;;;;;;;;4414004;32;318629;-67
2024/03/02 04:12:36;;;;;;;10.27;7.13;;;;;;;;;;4401212;32;317374;-66
2024/03/02 04:15:06;;;;;;;8.70;6.70;;;;;;;;;;4413979;32;347370;-67
2024/03/02 04:17:33;;;;;;;10.60;7.30;;;;;;;;;;4404097;32;317312;-67
2024/03/02 04:20:00;;;;;;;9.37;7.23;;;;;;;;;;4414229;32;318557;-68
2024/03/02 04:22:28;;;;;;;8.70;6.03;;;;;;;;;;4405130;32;317486;-67
2024/03/02 04:24:55;;;;;;;9.00;6.57;;;;;;;;;;4413819;32;317403;-69
2024/03/02 04:27:22;;;;;;;6.80;4.53;;;;;;;;;;4404556;32;317407;-66
2024/03/02 04:29:49;;;;;;;5.07;4.40;;;;;;;;;;4414562;32;317776;-67
2024/03/02 04:32:16;;;;;;;5.43;4.57;;;;;;;;;;4415095;32;317251;-67
2024/03/02 04:34:43;;;;;;;5.73;4.20;;;;;;;;;;4399218;32;416903;-66
2024/03/02 04:37:14;;;;;;;4.83;3.30;;;;;;;;;;4413662;32;317333;-67
2024/03/02 04:39:42;;;;;;;3.07;2.60;;;;;;;;;;4403931;32;317867;-67
2024/03/02 04:42:09;;;;;;;4.17;3.23;;;;;;;;;;4414172;32;317467;-67
2024/03/02 04:44:36;;;;;;;5.70;4.13;;;;;;;;;;4401099;32;317522;-67
2024/03/02 04:47:03;;;;;;;5.60;3.93;;;;;;;;;;4414074;32;326871;-67
2024/03/02 04:49:31;;;;;;;5.77;3.60;;;;;;;;;;4403545;32;317175;-69
2024/03/02 04:51:58;;;;;;;6.87;4.40;;;;;;;;;;4413365;32;317572;-67
2024/03/02 04:54:25;;;;;;;5.77;4.87;;;;;;;;;;4403351;32;317279;-66
2024/03/02 04:56:53;;;;;;;5.93;4.20;;;;;;;;;;4410474;32;317042;-67
2024/03/02 04:59:20;;;;;;;5.73;4.67;;;;;;;;;;4404738;32;317442;-68
2024/03/02 05:01:48;;;;;;;9.57;7.17;;;;;;;;;;4414875;32;317485;-68
2024/03/02 05:04:14;;;;;;;12.27;9.00;;;;;;;;;;4412915;32;317335;-67
2024/03/02 05:06:42;;;;;;;11.80;9.40;;;;;;;;;;4402039;32;318562;-69
2024/03/02 05:09:08;;;;;;;17.20;11.57;;;;;;;;;;4412774;32;318307;-67
2024/03/02 05:12:02;;;;;;;18.27;12.23;;;;;;;;;;4403760;32;319561;-67
2024/03/02 05:14:31;;;;;;;17.17;9.87;;;;;;;;;;4402359;32;319701;-70
2024/03/02 05:16:57;;;;;;;23.93;13.10;;;;;;;;;;4412711;32;318294;-67
2024/03/02 05:19:25;;;;;;;12.23;9.03;;;;;;;;;;4403858;32;319667;-67
2024/03/02 05:21:51;;;;;;;12.40;8.70;;;;;;;;;;4412577;32;318462;-69
2024/03/02 05:24:18;;;;;;;15.07;10.40;;;;;;;;;;4400383;32;336673;-68
2024/03/02 05:26:45;;;;;;;14.53;10.10;;;;;;;;;;4410028;32;319387;-69
2024/03/02 05:29:12;;;;;;;14.07;9.77;;;;;;;;;;4413659;32;319462;-67
2024/03/02 05:31:40;;;;;;;16.13;10.97;;;;;;;;;;4402737;32;318397;-69
2024/03/02 05:34:07;;;;;;;16.33;11.90;;;;;;;;;;4413439;32;319343;-67
2024/03/02 05:36:33;;;;;;;17.27;11.77;;;;;;;;;;4402253;32;319509;-69
2024/03/02 05:39:00;;;;;;;17.93;12.10;;;;;;;;;;4410676;32;318720;-67
2024/03/02 05:41:27;;;;;;;16.57;10.47;;;;;;;;;;4403594;32;319045;-66
2024/03/02 05:43:53;;;;;;;14.60;11.73;;;;;;;;;;4411862;32;319246;-67
2024/03/02 05:46:20;;;;;;;18.27;12.63;;;;;;;;;;4401216;32;319475;-67
2024/03/02 05:48:49;;;;;;;16.83;11.23;;;;;;;;;;4410778;32;319689;-69
2024/03/02 05:51:16;;;;;;;21.30;13.90;;;;;;;;;;4411890;32;324464;-67
2024/03/02 05:53:43;;;;;;;18.70;13.83;;;;;;;;;;4400337;32;419154;-66
2024/03/02 05:56:10;;;;;;;15.83;12.40;;;;;;;;;;4412905;32;319324;-67
2024/03/02 05:58:49;;;;;;;16.20;12.37;;;;;;;;;;4398671;32;349462;-66
2024/03/02 06:01:17;;;;;;;17.67;11.67;;;;;;;;;;4413545;32;319352;-69
2024/03/02 06:03:43;;;;;;;14.87;11.63;;;;;;;;;;4398864;32;419925;-67
2024/03/02 06:06:12;;;;;;;19.67;14.13;;;;;;;;;;4413383;32;319652;-66
2024/03/02 06:08:39;;;;;;;18.90;14.03;;;;;;;;;;4398894;32;350225;-66
2024/03/02 06:11:06;;;;;;;25.43;16.07;;;;;;;;;;4411951;32;319304;-67
2024/03/02 06:13:32;;;;;;;21.50;16.43;;;;;;;;;;4400704;32;358885;-70
2024/03/02 06:15:59;;;;;;;22.33;15.93;;;;;;;;;;4413094;32;319392;-69
2024/03/02 06:18:26;;;;;;;23.70;18.47;;;;;;;;;;4402386;32;319427;-67
2024/03/02 06:20:52;;;;;;;29.50;18.23;;;;;;;;;;4408726;32;319415;-67
2024/03/02 06:23:20;;;;;;;20.80;16.20;;;;;;;;;;4402194;32;319342;-67
2024/03/02 06:25:47;;;;;;;37.83;23.73;;;;;;;;;;4412314;32;319159;-69
2024/03/02 06:28:15;;;;;;;35.47;25.60;;;;;;;;;;4411851;32;319582;-67
2024/03/02 06:30:42;;;;;;;50.90;34.27;;;;;;;;;;4396519;32;420852;-68
2024/03/02 06:33:08;;;;;;;55.57;36.93;;;;;;;;;;4411233;32;356365;-70
2024/03/02 06:35:35;;;;;;;51.13;35.90;;;;;;;;;;4403234;32;319389;-69
2024/03/02 06:38:02;;;;;;;57.97;38.47;;;;;;;;;;4411778;32;319426;-69
2024/03/02 06:40:30;;;;;;;61.40;38.73;;;;;;;;;;4401384;32;319477;-68
2024/03/02 06:42:56;;;;;;;53.40;36.20;;;;;;;;;;4409729;32;319409;-68
2024/03/02 06:45:23;;;;;;;45.87;29.17;;;;;;;;;;4402724;32;319216;-67
2024/03/02 06:47:50;;;;;;;47.27;28.60;;;;;;;;;;4412735;32;320017;-67
2024/03/02 06:50:17;;;;;;;43.83;29.30;;;;;;;;;;4402727;32;319523;-69
2024/03/02 06:52:43;;;;;;;58.77;30.03;;;;;;;;;;4408904;32;319263;-67
2024/03/02 06:55:13;;;;;;;40.30;27.17;;;;;;;;;;4412048;32;319507;-67
2024/03/02 06:57:41;;;;;;;34.13;20.90;;;;;;;;;;4401502;32;319455;-69
2024/03/02 07:00:09;;;;;;;32.20;19.97;;;;;;;;;;4412575;32;319329;-67
2024/03/02 07:02:36;;;;;;;21.93;17.30;;;;;;;;;;4398487;32;318611;-67
2024/03/02 07:05:03;;;;;;;20.17;15.00;;;;;;;;;;4411715;32;319318;-67
2024/03/02 07:07:30;;;;;;;18.63;14.70;;;;;;;;;;4401783;32;319706;-68
2024/03/02 07:09:57;;;;;;;25.97;18.77;;;;;;;;;;4412414;32;319624;-70
2024/03/02 07:12:23;;;;;;;30.57;19.80;;;;;;;;;;4401472;32;319506;-67
2024/03/02 07:15:07;;;;;;;31.73;22.97;;;;;;;;;;4410600;32;319260;-68
2024/03/02 07:17:35;;;;;;;47.13;30.17;;;;;;;;;;4402810;32;319572;-68
2024/03/02 07:20:03;;;;;;;31.07;23.13;;;;;;;;;;4412497;32;319228;-67
2024/03/02 07:22:30;;;;;;;38.60;24.07;;;;;;;;;;4400001;32;318850;-67
2024/03/02 07:24:56;;;;;;;33.43;18.37;;;;;;;;;;4410977;32;318881;-69
2024/03/02 07:27:23;;;;;;;50.57;34.70;;;;;;;;;;4403027;32;319813;-67
2024/03/02 07:29:50;;;;;;;50.80;36.73;;;;;;;;;;4411152;32;319883;-68
2024/03/02 07:32:18;;;;;;;56.63;38.23;;;;;;;;;;4410359;32;319647;-70
2024/03/02 07:34:45;;;;;;;135.20;74.60;;;;;;;;;;4410030;32;319523;-70
2024/03/02 07:37:12;;;;;;;106.00;63.03;;;;;;;;;;4410778;32;320552;-67
2024/03/02 07:39:38;;;;;;;95.60;62.50;;;;;;;;;;4401850;32;341511;-67
2024/03/02 07:42:06;;;;;;;87.80;59.20;;;;;;;;;;4412530;32;319109;-70
2024/03/02 07:44:33;;;;;;;60.07;40.47;;;;;;;;;;4397650;32;328115;-68
2024/03/02 07:46:59;;;;;;;43.17;34.27;;;;;;;;;;4412042;32;318854;-68
2024/03/02 07:49:27;;;;;;;38.13;29.13;;;;;;;;;;4403547;32;319239;-67
2024/03/02 07:51:54;;;;;;;33.70;27.13;;;;;;;;;;4415097;32;319395;-68
2024/03/02 07:54:21;;;;;;;26.63;21.60;;;;;;;;;;4403856;32;319432;-69
2024/03/02 07:56:47;;;;;;;25.17;21.40;;;;;;;;;;4411772;32;319314;-67
2024/03/02 07:59:14;;;;;;;43.63;28.43;;;;;;;;;;4415080;32;319475;-68
2024/03/02 08:01:41;;;;;;;44.87;29.40;;;;;;;;;;4405418;32;319347;-67
2024/03/02 08:04:08;;;;;;;34.73;25.53;;;;;;;;;;4414801;32;319403;-68
2024/03/02 08:06:36;;;;;;;30.73;24.77;;;;;;;;;;4401721;32;319321;-67
2024/03/02 08:09:04;;;;;;;36.00;21.27;;;;;;;;;;4415102;32;319778;-67
2024/03/02 08:11:31;;;;;;;31.27;24.67;;;;;;;;;;4405083;32;319431;-70
2024/03/02 08:13:58;;;;;;;34.07;23.40;;;;;;;;;;4414762;32;319529;-71
2024/03/02 08:16:25;;;;;;;30.07;22.20;;;;;;;;;;4404927;32;319692;-69
2024/03/02 08:18:52;;;;;;;29.43;23.27;;;;;;;;;;4411355;32;319560;-69
2024/03/02 08:21:19;;;;;;;28.93;23.47;;;;;;;;;;4404738;32;319696;-68
2024/03/02 08:23:47;;;;;;;28.50;22.77;;;;;;;;;;4414711;32;319544;-67
2024/03/02 08:26:14;;;;;;;33.43;25.37;;;;;;;;;;4414793;32;319644;-69
2024/03/02 08:28:41;;;;;;;35.97;26.70;;;;;;;;;;4400782;32;319565;-67
2024/03/02 08:31:07;;;;;;;28.57;24.03;;;;;;;;;;4403466;32;333319;-69
2024/03/02 08:33:34;;;;;;;27.13;21.70;;;;;;;;;;4414458;32;319408;-67
2024/03/02 08:36:01;;;;;;;25.67;22.50;;;;;;;;;;4400831;32;319357;-68
2024/03/02 08:38:28;;;;;;;28.30;22.53;;;;;;;;;;4414518;32;318792;-68
2024/03/02 08:40:57;;;;;;;29.60;19.87;;;;;;;;;;4403409;32;319440;-68
2024/03/02 08:43:24;;;;;;;28.67;21.60;;;;;;;;;;4414258;32;319524;-68
2024/03/02 08:45:51;;;;;;;29.43;22.63;;;;;;;;;;4400514;32;339725;-68
2024/03/02 08:48:18;;;;;;;36.47;25.33;;;;;;;;;;4414487;32;319765;-69
2024/03/02 08:50:45;;;;;;;28.00;21.33;;;;;;;;;;4404024;32;319567;-69
2024/03/02 08:53:11;;;;;;;26.80;19.60;;;;;;;;;;4413274;32;319257;-68
2024/03/02 08:55:38;;;;;;;32.40;22.43;;;;;;;;;;4401957;32;340742;-69
2024/03/02 08:58:06;;;;;;;21.43;16.00;;;;;;;;;;4411069;32;320226;-68
2024/03/02 09:00:33;;;;;;;144.47;78.17;;;;;;;;;;4412832;32;319431;-69
2024/03/02 09:03:00;;;;;;;21.17;17.43;;;;;;;;;;4404284;32;320371;-68
2024/03/02 09:05:27;;;;;;;29.20;20.63;;;;;;;;;;4413827;32;319603;-68
2024/03/02 09:07:54;;;;;;;24.43;17.13;;;;;;;;;;4401193;32;319214;-68
2024/03/02 09:10:20;;;;;;;27.40;20.30;;;;;;;;;;4412860;32;319110;-70
2024/03/02 09:12:48;;;;;;;18.43;15.70;;;;;;;;;;4402310;32;361349;-68
2024/03/02 09:15:17;;;;;;;22.07;15.10;;;;;;;;;;4413817;32;318892;-68
2024/03/02 09:17:44;;;;;;;21.97;16.53;;;;;;;;;;4402776;32;319567;-68
2024/03/02 09:20:12;;;;;;;57.17;27.17;;;;;;;;;;4411431;32;319521;-67
2024/03/02 09:22:41;;;;;;;37.03;25.40;;;;;;;;;;4401992;32;377022;-68
2024/03/02 09:25:09;;;;;;;33.13;25.83;;;;;;;;;;4413958;32;319394;-69
2024/03/02 09:27:37;;;;;;;30.80;23.97;;;;;;;;;;4411633;32;319300;-68
2024/03/02 09:30:05;;;;;;;33.10;27.03;;;;;;;;;;4397850;32;420074;-68
2024/03/02 09:32:33;;;;;;;38.03;26.67;;;;;;;;;;4412934;32;318872;-68
2024/03/02 09:35:00;;;;;;;28.47;23.20;;;;;;;;;;4403417;32;319127;-66
2024/03/02 09:37:28;;;;;;;26.27;18.33;;;;;;;;;;4413872;32;319391;-67
2024/03/02 09:39:55;;;;;;;19.27;14.93;;;;;;;;;;4400698;32;319385;-66
2024/03/02 09:42:24;;;;;;;24.03;15.90;;;;;;;;;;4413463;32;319201;-68
2024/03/02 09:44:51;;;;;;;25.70;14.33;;;;;;;;;;4402683;32;319752;-68
2024/03/02 09:47:18;;;;;;;19.93;12.93;;;;;;;;;;4413388;32;319625;-67
2024/03/02 09:49:46;;;;;;;14.33;12.33;;;;;;;;;;4403277;32;319491;-67
2024/03/02 09:52:14;;;;;;;15.60;9.63;;;;;;;;;;4389841;32;319759;-69
2024/03/02 09:54:41;;;;;;;14.97;11.17;;;;;;;;;;4402961;32;318950;-70
2024/03/02 09:57:08;;;;;;;14.90;10.73;;;;;;;;;;4413472;32;319493;-67
2024/03/02 09:59:34;;;;;;;14.67;11.37;;;;;;;;;;4412080;32;318720;-67
2024/03/02 10:02:03;;;;;;;15.33;11.47;;;;;;;;;;4399701;32;319264;-67
2024/03/02 10:04:31;;;;;;;13.73;10.90;;;;;;;;;;4413069;32;319433;-68
2024/03/02 10:07:13;;;;;;;15.90;9.20;;;;;;;;;;4403169;32;319320;-67
2024/03/02 10:09:40;;;;;;;10.30;8.67;;;;;;;;;;4402101;32;318290;-67
2024/03/02 10:12:08;;;;;;;11.67;8.60;;;;;;;;;;4409280;32;318314;-67
2024/03/02 10:14:35;;;;;;;16.03;10.03;;;;;;;;;;4412447;32;318670;-67
2024/03/02 10:17:06;;;;;;;12.70;8.53;;;;;;;;;;4402925;32;318707;-68
2024/03/02 10:19:34;;;;;;;16.23;10.00;;;;;;;;;;4412863;32;318138;-68
2024/03/02 10:22:03;;;;;;;11.67;8.83;;;;;;;;;;4400281;32;319173;-67
2024/03/02 10:24:38;;;;;;;11.43;8.53;;;;;;;;;;4411065;32;350008;-69
2024/03/02 10:27:09;;;;;;;15.03;9.73;;;;;;;;;;4398819;32;419176;-68
2024/03/02 10:29:38;;;;;;;16.37;10.07;;;;;;;;;;4411905;32;318741;-68
2024/03/02 10:32:06;;;;;;;14.67;9.00;;;;;;;;;;4397547;32;418586;-68
2024/03/02 10:34:33;;;;;;;11.20;8.30;;;;;;;;;;4412446;32;318216;-70
2024/03/02 10:37:00;;;;;;;12.70;9.13;;;;;;;;;;4402805;32;318233;-68
2024/03/02 10:39:27;;;;;;;15.30;9.77;;;;;;;;;;4412782;32;318453;-69
2024/03/02 10:41:57;;;;;;;13.20;9.07;;;;;;;;;;4400542;32;318469;-69
2024/03/02 10:44:24;;;;;;;18.43;10.97;;;;;;;;;;4412716;32;318956;-68
2024/03/02 10:46:53;;;;;;;21.20;12.70;;;;;;;;;;4400790;32;347147;-68
2024/03/02 10:49:23;;;;;;;16.03;12.13;;;;;;;;;;4412392;32;325795;-70
2024/03/02 10:51:50;;;;;;;15.10;11.53;;;;;;;;;;4402523;32;319311;-69
2024/03/02 10:54:25;;;;;;;21.00;11.93;;;;;;;;;;4410591;32;319663;-69
2024/03/02 10:56:53;;;;;;;12.53;9.97;;;;;;;;;;4402476;32;319467;-68
2024/03/02 10:59:29;;;;;;;19.00;9.97;;;;;;;;;;4411748;32;317798;-68
2024/03/02 11:01:58;;;;;;;7.97;6.57;;;;;;;;;;4397798;32;318515;-68
2024/03/02 11:04:26;;;;;;;12.00;8.33;;;;;;;;;;4411966;32;317392;-68
2024/03/02 11:06:55;;;;;;;19.80;9.93;;;;;;;;;;4401376;32;318501;-67
2024/03/02 11:09:26;;;;;;;13.30;8.43;;;;;;;;;;4412259;32;318508;-70
2024/03/02 11:12:02;;;;;;;11.40;7.87;;;;;;;;;;4400298;32;318475;-68
2024/03/02 11:14:34;;;;;;;11.57;6.60;;;;;;;;;;4412125;32;318353;-67
2024/03/02 11:17:03;;;;;;;6.90;6.17;;;;;;;;;;4401713;32;318466;-69
2024/03/02 11:19:31;;;;;;;8.03;6.30;;;;;;;;;;4411630;32;317416;-67
2024/03/02 11:21:58;;;;;;;14.40;8.07;;;;;;;;;;4399767;32;317239;-68
2024/03/02 11:24:33;;;;;;;12.53;7.80;;;;;;;;;;4413453;32;318751;-68
2024/03/02 11:27:01;;;;;;;9.10;7.57;;;;;;;;;;4405375;32;318319;-68
2024/03/02 11:29:46;;;;;;;9.03;6.20;;;;;;;;;;4413743;32;317283;-67
2024/03/02 11:32:22;;;;;;;8.73;7.00;;;;;;;;;;4399908;32;417006;-69
2024/03/02 11:34:50;;;;;;;10.90;7.13;;;;;;;;;;4404163;32;317498;-68
2024/03/02 11:37:18;;;;;;;10.90;6.97;;;;;;;;;;4413924;32;318295;-69
2024/03/02 11:39:46;;;;;;;13.20;7.53;;;;;;;;;;4405169;32;318406;-68
2024/03/02 11:42:15;;;;;;;13.87;6.60;;;;;;;;;;4410746;32;318686;-68
2024/03/02 11:44:46;;;;;;;9.23;6.00;;;;;;;;;;4403816;32;354922;-69
2024/03/02 11:47:17;;;;;;;15.67;8.87;;;;;;;;;;4414440;32;317375;-67
2024/03/02 11:49:46;;;;;;;22.80;13.03;;;;;;;;;;4404977;32;318545;-67
2024/03/02 11:52:14;;;;;;;10.77;6.73;;;;;;;;;;4412370;32;329978;-67
2024/03/02 11:54:46;;;;;;;10.27;6.33;;;;;;;;;;4405187;32;318140;-67
2024/03/02 11:57:13;;;;;;;15.90;6.97;;;;;;;;;;4414587;32;318466;-68
2024/03/02 11:59:41;;;;;;;9.40;6.37;;;;;;;;;;4404770;32;318484;-67
2024/03/02 12:02:15;;;;;;;16.53;7.13;;;;;;;;;;4412854;32;317662;-67
2024/03/02 12:04:43;;;;;;;9.27;5.60;;;;;;;;;;4405125;32;318292;-70
2024/03/02 12:07:10;;;;;;;12.47;8.50;;;;;;;;;;4414293;32;316710;-67
2024/03/02 12:09:37;;;;;;;10.47;6.80;;;;;;;;;;4414266;32;318411;-67
2024/03/02 12:12:05;;;;;;;9.63;6.47;;;;;;;;;;4399042;32;417827;-68
2024/03/02 12:14:33;;;;;;;18.73;11.80;;;;;;;;;;4414244;32;316968;-67
2024/03/02 12:17:00;;;;;;;12.03;8.30;;;;;;;;;;4402855;32;319508;-67
2024/03/02 12:19:29;;;;;;;29.80;15.33;;;;;;;;;;4414704;32;318513;-66
2024/03/02 12:21:57;;;;;;;30.67;17.97;;;;;;;;;;4401707;32;319351;-66
2024/03/02 12:24:25;;;;;;;11.17;6.20;;;;;;;;;;4412869;32;319910;-67
2024/03/02 12:26:52;;;;;;;14.27;7.75;;;;;;;;;;4402911;32;317595;-69
2024/03/02 12:29:20;;;;;;;13.20;6.03;;;;;;;;;;4413276;32;318464;-67
2024/03/02 12:31:49;;;;;;;12.47;5.93;;;;;;;;;;4404323;32;319080;-67
2024/03/02 12:34:18;;;;;;;11.43;9.07;;;;;;;;;;4412051;32;318072;-69
2024/03/02 12:36:49;;;;;;;15.97;7.50;;;;;;;;;;4401493;32;348133;-67
2024/03/02 12:39:16;;;;;;;15.40;8.30;;;;;;;;;;4413291;32;317623;-67
2024/03/02 12:41:43;;;;;;;12.47;7.43;;;;;;;;;;4403544;32;318908;-66
2024/03/02 12:44:10;;;;;;;12.33;7.20;;;;;;;;;;4410724;32;318116;-68
2024/03/02 12:46:37;;;;;;;19.37;12.17;;;;;;;;;;4412974;32;318185;-70
2024/03/02 12:49:10;;;;;;;234.97;108.27;;;;;;;;;;4400761;32;418483;-67
2024/03/02 12:51:36;;;;;;;42.30;33.20;;;;;;;;;;4413890;32;321750;-67
2024/03/02 12:54:05;;;;;;;30.30;21.50;;;;;;;;;;4398582;32;418414;-67
2024/03/02 12:56:32;;;;;;;16.58;11.48;;;;;;;;;;4412752;32;319316;-69
2024/03/02 12:59:00;;;;;;;16.55;10.73;;;;;;;;;;4404002;32;319653;-68
2024/03/02 13:01:27;;;;;;;15.10;9.80;;;;;;;;;;4412291;32;319093;-68
2024/03/02 13:03:55;;;;;;;13.48;10.02;;;;;;;;;;4401178;32;318119;-67
2024/03/02 13:06:22;;;;;;;19.97;13.53;;;;;;;;;;4413437;32;319493;-67
2024/03/02 13:08:50;;;;;;;16.83;9.57;;;;;;;;;;4403695;32;319741;-68
2024/03/02 13:11:18;;;;;;;18.60;8.37;;;;;;;;;;4414135;32;318473;-67
2024/03/02 13:13:45;;;;;;;10.63;7.43;;;;;;;;;;4401130;32;318449;-67
2024/03/02 13:16:12;;;;;;;9.30;6.67;;;;;;;;;;4410390;32;318334;-69
2024/03/02 13:18:39;;;;;;;11.70;7.97;;;;;;;;;;4404048;32;317258;-71
2024/03/02 13:21:06;;;;;;;11.37;5.93;;;;;;;;;;4413277;32;318335;-68
2024/03/02 13:23:33;;;;;;;12.37;6.47;;;;;;;;;;4412852;32;318509;-69
2024/03/02 13:26:02;;;;;;;9.23;5.87;;;;;;;;;;4399053;32;353633;-67
2024/03/02 13:28:31;;;;;;;10.90;6.33;;;;;;;;;;4413295;32;317159;-67
2024/03/02 13:30:58;;;;;;;12.30;6.43;;;;;;;;;;4404016;32;318507;-67
2024/03/02 13:33:24;;;;;;;16.03;6.27;;;;;;;;;;4416823;32;318091;-68
2024/03/02 13:35:51;;;;;;;15.88;8.80;;;;;;;;;;4403220;32;318353;-68
2024/03/02 13:38:20;;;;;;;11.73;7.17;;;;;;;;;;4411188;32;318422;-67
2024/03/02 13:40:47;;;;;;;16.33;6.73;;;;;;;;;;4403368;32;318123;-67
2024/03/02 13:43:14;;;;;;;7.57;5.10;;;;;;;;;;4411753;32;318449;-71
2024/03/02 13:45:42;;;;;;;11.97;5.73;;;;;;;;;;4403487;32;317228;-68
2024/03/02 13:48:09;;;;;;;14.43;6.00;;;;;;;;;;4409213;32;318021;-67
2024/03/02 13:50:36;;;;;;;10.73;5.70;;;;;;;;;;4413012;32;318342;-68
2024/03/02 13:53:03;;;;;;;7.50;5.23;;;;;;;;;;4403108;32;318493;-68
2024/03/02 13:55:31;;;;;;;13.00;8.53;;;;;;;;;;4411045;32;317331;-68
2024/03/02 13:58:00;;;;;;;11.00;6.47;;;;;;;;;;4400170;32;318788;-67
2024/03/02 14:00:28;;;;;;;13.63;8.03;;;;;;;;;;4413297;32;318472;-68
2024/03/02 14:02:56;;;;;;;11.37;6.57;;;;;;;;;;4402819;32;318478;-69
2024/03/02 14:05:23;;;;;;;10.80;5.70;;;;;;;;;;4408222;32;318455;-67
2024/03/02 14:07:50;;;;;;;14.23;4.53;;;;;;;;;;4403192;32;318242;-67
2024/03/02 14:10:21;;;;;;;14.63;5.27;;;;;;;;;;4412018;32;318383;-68
2024/03/02 14:12:48;;;;;;;11.43;5.73;;;;;;;;;;4401584;32;335300;-67
2024/03/02 14:15:15;;;;;;;11.57;6.63;;;;;;;;;;4410942;32;318451;-68